createdAt,value
2018-04-29T00:01:42.280Z,19.2
2018-04-29T00:06:36.422Z,19.1
2018-04-29T00:11:30.220Z,19.2
2018-04-29T00:16:24.886Z,19.2
2018-04-29T00:21:18.862Z,19
2018-04-29T00:26:12.744Z,18.9
2018-04-29T00:31:06.776Z,18.8
2018-04-29T00:36:00.750Z,18.8
2018-04-29T00:40:54.783Z,18.8
2018-04-29T00:45:48.649Z,18.7
2018-04-29T00:50:42.922Z,18.6
2018-04-29T00:55:37.248Z,18.4
2018-04-29T01:00:31.540Z,18.4
2018-04-29T01:05:25.683Z,18.4
2018-04-29T01:10:19.590Z,18.3
2018-04-29T01:15:13.553Z,18.3
2018-04-29T01:20:07.444Z,18.3
2018-04-29T01:25:01.816Z,18.2
2018-04-29T01:29:55.837Z,18.2
2018-04-29T01:34:49.749Z,18.1
2018-04-29T01:39:43.966Z,18
2018-04-29T01:44:37.327Z,17.9
2018-04-29T01:49:31.343Z,17.8
2018-04-29T01:54:25.406Z,17.8
2018-04-29T01:59:19.249Z,17.8
2018-04-29T02:04:13.175Z,17.8
2018-04-29T02:09:07.138Z,17.8
2018-04-29T02:14:01.137Z,17.8
2018-04-29T02:18:55.264Z,17.6
2018-04-29T02:23:49.328Z,17.6
2018-04-29T02:28:43.413Z,17.6
2018-04-29T02:33:37.939Z,17.5
2018-04-29T02:38:32.002Z,17.5
2018-04-29T02:43:25.912Z,17.4
2018-04-29T02:48:19.718Z,17.4
2018-04-29T02:53:13.904Z,17.3
2018-04-29T02:58:08.179Z,17.4
2018-04-29T03:03:02.213Z,17.3
2018-04-29T03:07:56.031Z,17.2
2018-04-29T03:12:50.209Z,17.2
2018-04-29T03:17:44.202Z,17.1
2018-04-29T03:22:37.915Z,17
2018-04-29T03:27:31.665Z,17
2018-04-29T03:32:25.593Z,17.1
2018-04-29T03:37:19.890Z,17.2
2018-04-29T03:42:13.897Z,17.1
2018-04-29T03:47:07.964Z,17.1
2018-04-29T03:52:02.141Z,17
2018-04-29T03:56:56.370Z,17
2018-04-29T04:01:51.281Z,17.1
2018-04-29T04:06:45.203Z,17
2018-04-29T04:11:39.341Z,16.9
2018-04-29T04:16:33.335Z,17.1
2018-04-29T04:21:27.004Z,17
2018-04-29T04:26:21.259Z,17.1
2018-04-29T04:31:15.462Z,17.1
2018-04-29T04:36:09.613Z,17.1
2018-04-29T04:41:03.599Z,17
2018-04-29T04:45:57.719Z,17.1
2018-04-29T04:50:51.682Z,17.2
2018-04-29T04:55:45.887Z,17.3
2018-04-29T05:00:39.924Z,17.2
2018-04-29T05:05:33.871Z,17.1
2018-04-29T05:10:28.215Z,17.2
2018-04-29T05:15:22.261Z,17.3
2018-04-29T05:20:16.228Z,17.3
2018-04-29T05:25:10.244Z,17.4
2018-04-29T05:30:04.573Z,17.5
2018-04-29T05:34:58.977Z,17.5
2018-04-29T05:39:53.151Z,17.6
2018-04-29T05:44:47.463Z,17.6
2018-04-29T05:49:41.345Z,17.8
2018-04-29T05:54:35.179Z,17.8
2018-04-29T05:59:29.390Z,17.9
2018-04-29T06:04:23.533Z,17.9
2018-04-29T06:09:17.598Z,18
2018-04-29T06:14:11.611Z,18
2018-04-29T06:19:05.705Z,18.1
2018-04-29T06:24:00.092Z,18.3
2018-04-29T06:28:54.031Z,18.2
2018-04-29T06:33:48.350Z,18.3
2018-04-29T06:38:42.341Z,18.5
2018-04-29T06:43:36.461Z,18.6
2018-04-29T06:48:30.813Z,18.6
2018-04-29T06:53:22.992Z,18.8
2018-04-29T06:58:17.299Z,18.9
2018-04-29T07:03:11.458Z,18.9
2018-04-29T07:08:05.715Z,18.9
2018-04-29T07:12:59.985Z,19.1
2018-04-29T07:17:54.339Z,19.2
2018-04-29T07:22:47.981Z,19.2
2018-04-29T07:27:42.139Z,19.4
2018-04-29T07:32:36.747Z,19.5
2018-04-29T07:37:31.350Z,19.5
2018-04-29T07:42:25.754Z,19.7
2018-04-29T07:47:19.746Z,19.6
2018-04-29T07:52:14.290Z,19.8
2018-04-29T07:57:08.316Z,19.9
2018-04-29T08:02:01.632Z,20.1
2018-04-29T08:06:56.426Z,20.2
2018-04-29T08:11:50.742Z,20.4
2018-04-29T08:16:44.589Z,20.5
2018-04-29T08:21:38.519Z,20.7
2018-04-29T08:26:33.367Z,20.8
2018-04-29T08:31:27.127Z,20.9
2018-04-29T08:36:20.571Z,20.9
2018-04-29T08:41:14.835Z,21
2018-04-29T08:46:09.018Z,21.2
2018-04-29T08:51:03.669Z,21.4
2018-04-29T08:55:57.846Z,21.4
2018-04-29T09:00:52.025Z,21.5
2018-04-29T09:05:46.501Z,21.7
2018-04-29T09:10:40.811Z,21.7
2018-04-29T09:15:35.140Z,21.8
2018-04-29T09:20:29.791Z,22.1
2018-04-29T09:25:23.964Z,22.2
2018-04-29T09:30:17.873Z,22.3
2018-04-29T09:35:12.628Z,22.5
2018-04-29T09:40:07.292Z,22.7
2018-04-29T09:45:00.727Z,22.7
2018-04-29T09:49:54.987Z,22.9
2018-04-29T09:54:49.320Z,23.2
2018-04-29T09:59:43.381Z,23.3
2018-04-29T10:04:37.672Z,23.5
2018-04-29T10:09:32.781Z,23.8
2018-04-29T10:14:26.775Z,23.8
2018-04-29T10:19:20.782Z,23.8
2018-04-29T10:24:15.198Z,24
2018-04-29T10:29:09.037Z,23.9
2018-04-29T10:34:03.551Z,24
2018-04-29T10:38:57.385Z,24
2018-04-29T10:43:51.394Z,24
2018-04-29T10:48:45.583Z,24
2018-04-29T10:53:39.746Z,24
2018-04-29T10:58:33.865Z,24.2
2018-04-29T11:03:28.017Z,24.4
2018-04-29T11:08:22.392Z,24.5
2018-04-29T11:13:16.995Z,24.7
2018-04-29T11:18:10.876Z,24.7
2018-04-29T11:23:05.074Z,24.8
2018-04-29T11:27:59.428Z,24.9
2018-04-29T11:32:53.692Z,25.1
2018-04-29T11:37:47.826Z,25.2
2018-04-29T11:42:42.075Z,25.3
2018-04-29T11:47:36.424Z,25.5
2018-04-29T11:52:30.982Z,25.7
2018-04-29T11:57:25.485Z,25.7
2018-04-29T12:02:20.191Z,25.8
2018-04-29T12:07:14.442Z,25.9
2018-04-29T12:12:08.814Z,25.9
2018-04-29T12:17:03.156Z,26
2018-04-29T12:21:57.910Z,26.1
2018-04-29T12:26:51.853Z,26
2018-04-29T12:31:46.401Z,26
2018-04-29T12:36:40.153Z,26.1
2018-04-29T12:41:33.924Z,25.9
2018-04-29T12:46:27.897Z,25.9
2018-04-29T12:51:21.891Z,25.7
2018-04-29T12:56:16.062Z,25.8
2018-04-29T13:01:10.408Z,25.8
2018-04-29T13:06:04.188Z,25.6
2018-04-29T13:10:58.656Z,25.5
2018-04-29T13:15:52.478Z,25.5
2018-04-29T13:20:46.679Z,25.6
2018-04-29T13:25:40.580Z,25.6
2018-04-29T13:30:34.784Z,25.6
2018-04-29T13:35:28.941Z,25.7
2018-04-29T13:40:23.482Z,26
2018-04-29T13:45:18.277Z,25.8
2018-04-29T13:50:11.751Z,25.6
2018-04-29T13:55:05.849Z,25.5
2018-04-29T14:00:00.198Z,25.4
2018-04-29T14:04:53.943Z,25.3
2018-04-29T14:09:47.905Z,25.2
2018-04-29T14:14:41.714Z,25.1
2018-04-29T14:19:36.392Z,24.9
2018-04-29T14:24:30.734Z,24.9
2018-04-29T14:29:24.788Z,24.8
2018-04-29T14:34:19.417Z,24.8
2018-04-29T14:39:13.370Z,24.7
2018-04-29T14:44:07.648Z,24.5
2018-04-29T14:49:01.957Z,24.4
2018-04-29T14:53:56.597Z,24.4
2018-04-29T14:58:50.029Z,24.4
2018-04-29T15:03:44.417Z,24.3
2018-04-29T15:08:39.803Z,24.2
2018-04-29T15:13:35.391Z,24.1
2018-04-29T15:18:30.882Z,24.1
2018-04-29T15:23:26.350Z,23.9
2018-04-29T15:28:20.982Z,23.9
2018-04-29T15:33:15.247Z,24
2018-04-29T15:38:09.191Z,23.8
2018-04-29T15:43:03.062Z,23.9
2018-04-29T15:47:57.179Z,23.8
2018-04-29T15:52:51.494Z,23.8
2018-04-29T15:57:46.084Z,23.8
2018-04-29T16:02:39.920Z,23.8
2018-04-29T16:07:34.014Z,23.7
2018-04-29T16:12:28.231Z,23.7
2018-04-29T16:17:22.572Z,23.6
2018-04-29T16:22:16.993Z,23.5
2018-04-29T16:27:11.067Z,23.3
2018-04-29T16:32:04.880Z,23.2
2018-04-29T16:36:59.150Z,23
2018-04-29T16:41:53.494Z,23
2018-04-29T16:46:44.711Z,22.9
2018-04-29T16:51:39.184Z,22.8
2018-04-29T16:56:33.087Z,22.7
2018-04-29T17:01:27.317Z,22.6
2018-04-29T17:06:21.382Z,22.6
2018-04-29T17:11:16.028Z,22.5
2018-04-29T17:16:10.138Z,22.3
2018-04-29T17:21:03.979Z,22.3
2018-04-29T17:25:57.815Z,22.2
2018-04-29T17:30:51.017Z,22.1
2018-04-29T17:35:45.313Z,22.1
2018-04-29T17:40:39.614Z,22
2018-04-29T17:45:33.614Z,21.9
2018-04-29T17:50:27.804Z,21.9
2018-04-29T17:55:22.482Z,21.8
2018-04-29T18:00:16.683Z,21.8
2018-04-29T18:05:10.424Z,21.9
2018-04-29T18:10:04.201Z,21.8
2018-04-29T18:14:58.078Z,21.8
2018-04-29T18:19:53.382Z,21.7
2018-04-29T18:24:47.005Z,21.7
2018-04-29T18:29:41.419Z,21.7
2018-04-29T18:34:34.950Z,21.4
2018-04-29T18:39:28.899Z,21.5
2018-04-29T18:44:23.192Z,21.4
2018-04-29T18:49:17.383Z,21.4
2018-04-29T18:54:10.633Z,21.4
2018-04-29T18:59:05.043Z,21.3
2018-04-29T19:03:58.965Z,21.2
2018-04-29T19:08:53.049Z,21.2
2018-04-29T19:13:47.914Z,21.1
2018-04-29T19:18:42.675Z,21.1
2018-04-29T19:23:36.802Z,20.9
2018-04-29T19:28:30.936Z,20.9
2018-04-29T19:33:25.453Z,20.9
2018-04-29T19:38:19.164Z,20.9
2018-04-29T19:43:13.452Z,20.8
2018-04-29T19:48:07.273Z,20.8
2018-04-29T19:53:01.575Z,20.8
2018-04-29T19:57:56.158Z,20.8
2018-04-29T20:02:50.393Z,20.6
2018-04-29T20:07:44.542Z,20.6
2018-04-29T20:12:38.526Z,20.5
2018-04-29T20:17:32.524Z,20.4
2018-04-29T20:22:26.210Z,20.4
2018-04-29T20:27:20.460Z,20.4
2018-04-29T20:32:14.703Z,20.4
2018-04-29T20:37:08.367Z,20.3
2018-04-29T20:42:02.327Z,20.2
2018-04-29T20:46:56.545Z,20.1
2018-04-29T20:51:50.725Z,20.1
2018-04-29T20:56:44.194Z,20.1
2018-04-29T21:01:38.651Z,20
2018-04-29T21:06:32.610Z,20
2018-04-29T21:11:26.465Z,20
2018-04-29T21:16:20.941Z,19.8
2018-04-29T21:21:15.467Z,19.8
2018-04-29T21:26:09.519Z,19.8
2018-04-29T21:31:03.753Z,19.7
2018-04-29T21:35:57.729Z,19.6
2018-04-29T21:40:51.802Z,19.6
2018-04-29T21:45:45.819Z,19.5
2018-04-29T21:50:40.484Z,19.4
2018-04-29T21:55:34.446Z,19.3
2018-04-29T22:00:28.694Z,19.4
2018-04-29T22:05:22.923Z,19.2
2018-04-29T22:10:17.272Z,19.2
2018-04-29T22:15:11.543Z,19.1
2018-04-29T22:20:06.037Z,19
2018-04-29T22:24:59.629Z,19
2018-04-29T22:29:54.176Z,19.1
2018-04-29T22:34:48.485Z,19
2018-04-29T22:39:42.926Z,18.9
2018-04-29T22:44:37.257Z,18.9
2018-04-29T22:49:31.659Z,18.9
2018-04-29T22:54:25.731Z,18.9
2018-04-29T22:59:20.021Z,18.8
2018-04-29T23:04:14.565Z,18.8
2018-04-29T23:09:08.526Z,18.8
2018-04-29T23:14:02.590Z,18.7
2018-04-29T23:18:56.618Z,18.6
2018-04-29T23:23:50.971Z,18.7
2018-04-29T23:28:45.176Z,18.5
2018-04-29T23:33:39.175Z,18.5
2018-04-29T23:38:33.096Z,18.4
2018-04-29T23:43:27.340Z,18.4
2018-04-29T23:48:21.159Z,18.3
2018-04-29T23:53:15.191Z,18.2
2018-04-29T23:58:09.298Z,17.9
